createdAt,value
2022-09-23T00:00:45.790Z,5.82
2022-09-23T00:03:50.254Z,5.93
2022-09-23T00:06:54.446Z,5.83
2022-09-23T00:09:57.194Z,5.80
2022-09-23T00:13:00.434Z,6.38
2022-09-23T00:16:05.116Z,6.53
2022-09-23T00:19:07.814Z,6.57
2022-09-23T00:22:12.275Z,6.77
2022-09-23T00:25:14.871Z,6.78
2022-09-23T00:28:17.826Z,7.30
2022-09-23T00:31:23.210Z,6.82
2022-09-23T00:34:26.105Z,7.00
2022-09-23T00:37:30.379Z,6.73
2022-09-23T00:40:33.364Z,6.38
2022-09-23T00:43:43.620Z,6.35
2022-09-23T00:46:46.415Z,7.05
2022-09-23T00:49:55.275Z,7.70
2022-09-23T00:53:01.767Z,6.80
2022-09-23T00:56:07.914Z,7.43
2022-09-23T00:59:11.716Z,7.82
2022-09-23T01:02:18.475Z,7.82
2022-09-23T01:05:24.469Z,8.52
2022-09-23T01:08:29.236Z,7.53
2022-09-23T01:11:41.184Z,7.47
2022-09-23T01:14:50.230Z,8.13
2022-09-23T01:18:00.854Z,7.90
2022-09-23T01:21:14.918Z,7.65
2022-09-23T01:24:46.342Z,7.53
2022-09-23T01:28:06.741Z,7.40
2022-09-23T01:31:17.480Z,7.63
2022-09-23T01:34:27.500Z,7.45
2022-09-23T01:37:37.648Z,7.38
2022-09-23T01:40:50.111Z,7.03
2022-09-23T01:44:01.789Z,6.78
2022-09-23T01:47:12.756Z,7.28
2022-09-23T01:50:37.864Z,7.00
2022-09-23T01:53:46.765Z,7.55
2022-09-23T01:56:56.203Z,7.63
2022-09-23T02:00:05.327Z,7.65
2022-09-23T02:03:15.690Z,7.70
2022-09-23T02:06:24.490Z,7.40
2022-09-23T02:09:32.742Z,7.10
2022-09-23T02:12:38.744Z,7.77
2022-09-23T02:15:47.287Z,7.38
2022-09-23T02:18:57.002Z,7.88
2022-09-23T02:22:10.430Z,7.78
2022-09-23T02:25:16.222Z,7.77
2022-09-23T02:28:32.452Z,7.72
2022-09-23T02:31:40.301Z,7.43
2022-09-23T02:34:48.053Z,7.47
2022-09-23T02:37:58.866Z,7.60
2022-09-23T02:41:09.392Z,7.30
2022-09-23T02:44:16.117Z,8.05
2022-09-23T02:47:25.882Z,7.30
2022-09-23T02:50:30.899Z,7.50
2022-09-23T02:53:34.534Z,7.72
2022-09-23T02:56:38.170Z,6.88
2022-09-23T02:59:40.981Z,7.47
2022-09-23T03:03:02.748Z,6.73
2022-09-23T03:06:17.393Z,7.03
2022-09-23T03:09:26.643Z,7.45
2022-09-23T03:12:41.903Z,7.38
2022-09-23T03:15:53.361Z,7.97
2022-09-23T03:19:02.887Z,7.20
2022-09-23T03:22:11.491Z,7.10
2022-09-23T03:25:19.229Z,7.25
2022-09-23T03:28:25.519Z,6.72
2022-09-23T03:31:28.291Z,6.70
2022-09-23T03:34:34.791Z,6.53
2022-09-23T03:37:44.699Z,6.40
2022-09-23T03:40:50.936Z,7.00
2022-09-23T03:43:53.961Z,6.47
2022-09-23T03:47:02.388Z,7.05
2022-09-23T03:50:05.728Z,8.17
2022-09-23T03:53:09.744Z,8.20
2022-09-23T03:56:12.310Z,8.05
2022-09-23T03:59:19.671Z,6.60
2022-09-23T04:02:22.363Z,6.70
2022-09-23T04:05:25.187Z,6.63
2022-09-23T04:08:29.136Z,6.78
2022-09-23T04:11:32.046Z,6.88
2022-09-23T04:14:34.791Z,6.20
2022-09-23T04:17:37.662Z,6.57
2022-09-23T04:20:40.335Z,6.20
2022-09-23T04:23:44.733Z,5.95
2022-09-23T04:26:47.311Z,6.53
2022-09-23T04:29:50.237Z,6.15
2022-09-23T04:32:53.357Z,6.65
2022-09-23T04:35:56.841Z,6.07
2022-09-23T04:39:00.792Z,6.15
2022-09-23T04:42:04.173Z,6.45
2022-09-23T04:45:07.614Z,5.80
2022-09-23T04:48:10.650Z,6.20
2022-09-23T04:51:15.415Z,5.63
2022-09-23T04:54:19.368Z,6.40
2022-09-23T04:57:21.929Z,6.10
2022-09-23T05:00:24.615Z,6.38
2022-09-23T05:03:27.255Z,6.45
2022-09-23T05:06:32.312Z,6.70
2022-09-23T05:09:36.328Z,6.63
2022-09-23T05:12:39.054Z,6.70
2022-09-23T05:15:41.588Z,6.15
2022-09-23T05:18:45.254Z,6.57
2022-09-23T05:21:47.974Z,5.93
2022-09-23T05:24:52.046Z,6.07
2022-09-23T05:27:54.614Z,6.80
2022-09-23T05:31:03.267Z,5.72
2022-09-23T05:34:06.905Z,5.50
2022-09-23T05:37:09.793Z,5.63
2022-09-23T05:40:13.855Z,5.57
2022-09-23T05:43:17.517Z,6.45
2022-09-23T05:46:23.274Z,5.82
2022-09-23T05:49:42.621Z,5.80
2022-09-23T05:52:48.721Z,6.17
2022-09-23T05:55:54.539Z,5.40
2022-09-23T05:58:58.946Z,7.07
2022-09-23T06:02:01.909Z,5.78
2022-09-23T06:05:04.803Z,6.30
2022-09-23T06:08:08.231Z,6.13
2022-09-23T06:11:12.504Z,5.78
2022-09-23T06:14:15.635Z,6.30
2022-09-23T06:17:18.304Z,6.00
2022-09-23T06:20:20.973Z,6.03
2022-09-23T06:23:26.103Z,6.23
2022-09-23T06:26:33.739Z,5.90
2022-09-23T06:29:36.933Z,6.05
2022-09-23T06:32:39.835Z,5.57
2022-09-23T06:35:47.569Z,5.80
2022-09-23T06:38:56.390Z,5.63
2022-09-23T06:42:00.340Z,5.20
2022-09-23T06:45:03.171Z,5.25
2022-09-23T06:48:08.283Z,5.55
2022-09-23T06:51:19.058Z,5.78
2022-09-23T06:54:21.695Z,5.00
2022-09-23T06:57:25.662Z,6.82
2022-09-23T07:00:29.129Z,6.28
2022-09-23T07:03:32.116Z,5.40
2022-09-23T07:06:34.744Z,5.45
2022-09-23T07:09:37.751Z,5.63
2022-09-23T07:12:42.182Z,4.93
2022-09-23T07:15:50.700Z,5.22
2022-09-23T07:18:53.560Z,5.18
2022-09-23T07:21:57.007Z,4.80
2022-09-23T07:24:59.764Z,4.30
2022-09-23T07:28:04.035Z,4.95
2022-09-23T07:31:09.785Z,5.55
2022-09-23T07:34:12.815Z,5.60
2022-09-23T07:37:16.481Z,5.57
2022-09-23T07:40:19.299Z,4.90
2022-09-23T07:43:23.477Z,4.75
2022-09-23T07:46:28.146Z,4.53
2022-09-23T07:49:30.772Z,5.15
2022-09-23T07:52:33.420Z,5.05
2022-09-23T07:55:36.656Z,4.60
2022-09-23T07:58:40.549Z,4.30
2022-09-23T08:01:46.307Z,4.10
2022-09-23T08:04:50.335Z,4.18
2022-09-23T08:07:53.025Z,4.15
2022-09-23T08:11:02.579Z,3.80
2022-09-23T08:14:08.611Z,4.00
2022-09-23T08:17:12.952Z,3.97
2022-09-23T08:20:35.630Z,3.83
2022-09-23T08:23:38.261Z,3.75
2022-09-23T08:26:40.851Z,3.57
2022-09-23T08:29:44.786Z,3.17
2022-09-23T08:32:51.403Z,4.07
2022-09-23T08:35:59.253Z,3.70
2022-09-23T08:39:01.947Z,4.28
2022-09-23T08:42:17.558Z,4.53
2022-09-23T08:45:24.318Z,4.70
2022-09-23T08:48:30.622Z,8.27
2022-09-23T08:51:40.369Z,4.00
2022-09-23T08:54:44.656Z,4.03
2022-09-23T09:01:34.655Z,3.55
2022-09-23T09:04:44.482Z,3.42
2022-09-23T09:07:47.368Z,3.63
2022-09-23T09:10:50.436Z,3.00
2022-09-23T09:14:02.393Z,3.10
2022-09-23T09:17:10.640Z,2.85
2022-09-23T09:20:23.367Z,2.90
2022-09-23T09:23:34.826Z,3.90
2022-09-23T09:26:41.008Z,4.93
2022-09-23T09:29:49.918Z,3.07
2022-09-23T09:33:00.967Z,2.50
2022-09-23T09:36:16.132Z,2.50
2022-09-23T09:39:22.891Z,2.58
2022-09-23T09:42:39.095Z,2.40
2022-09-23T09:45:59.213Z,2.03
2022-09-23T09:49:09.407Z,1.85
2022-09-23T09:52:14.109Z,2.10
2022-09-23T09:55:26.355Z,2.15
2022-09-23T09:58:33.511Z,2.03
2022-09-23T10:01:36.847Z,1.70
2022-09-23T10:04:41.785Z,1.50
2022-09-23T10:07:44.355Z,2.00
2022-09-23T10:10:55.009Z,1.30
2022-09-23T10:14:10.982Z,1.60
2022-09-23T10:17:20.488Z,1.40
2022-09-23T10:20:24.833Z,1.20
2022-09-23T10:23:33.216Z,1.40
2022-09-23T10:26:43.218Z,1.30
2022-09-23T10:29:51.759Z,1.70
2022-09-23T10:32:57.126Z,1.53
2022-09-23T10:36:01.646Z,1.50
2022-09-23T10:39:23.766Z,2.85
2022-09-23T10:43:01.125Z,1.83
2022-09-23T10:46:24.576Z,1.10
2022-09-23T10:49:43.832Z,1.10
2022-09-23T10:52:57.440Z,1.40
2022-09-23T10:56:16.792Z,1.50
2022-09-23T10:59:50.213Z,1.25
2022-09-23T11:03:17.820Z,1.40
2022-09-23T11:06:26.869Z,1.20
2022-09-23T11:09:41.333Z,1.23
2022-09-23T11:12:53.916Z,1.30
2022-09-23T11:16:04.646Z,1.20
2022-09-23T11:19:23.489Z,1.20
2022-09-23T11:22:43.875Z,1.10
2022-09-23T11:25:56.016Z,1.02
2022-09-23T11:29:14.565Z,1.30
2022-09-23T11:32:35.529Z,1.10
2022-09-23T11:35:45.954Z,1.40
2022-09-23T11:38:52.372Z,1.50
2022-09-23T11:42:00.767Z,1.98
2022-09-23T11:45:10.865Z,2.08
2022-09-23T11:48:18.207Z,13.90
2022-09-23T11:51:25.679Z,4.75
2022-09-23T11:54:32.878Z,4.57
2022-09-23T11:57:48.936Z,3.95
2022-09-23T12:01:01.310Z,1.50
2022-09-23T12:04:18.609Z,1.50
2022-09-23T12:07:30.099Z,1.40
2022-09-23T12:10:44.851Z,3.13
2022-09-23T12:13:56.402Z,1.30
2022-09-23T12:17:16.110Z,1.35
2022-09-23T12:20:42.940Z,1.60
2022-09-23T12:24:03.100Z,1.50
2022-09-23T12:27:10.985Z,1.60
2022-09-23T12:30:20.284Z,1.42
2022-09-23T12:33:26.603Z,1.80
2022-09-23T12:36:34.730Z,2.33
2022-09-23T12:39:39.256Z,1.70
2022-09-23T12:42:46.115Z,1.40
2022-09-23T12:45:50.813Z,1.33
2022-09-23T12:49:02.231Z,1.60
2022-09-23T12:52:25.071Z,1.20
2022-09-23T12:55:51.704Z,1.40
2022-09-23T12:59:14.197Z,1.50
2022-09-23T13:02:28.556Z,1.38
2022-09-23T13:05:57.107Z,1.05
2022-09-23T13:09:02.590Z,1.10
2022-09-23T13:12:09.667Z,1.02
2022-09-23T13:15:21.426Z,1.30
2022-09-23T13:18:59.725Z,1.15
2022-09-23T13:22:09.398Z,1.20
2022-09-23T13:25:20.834Z,1.08
2022-09-23T13:28:31.047Z,1.40
2022-09-23T13:31:35.354Z,1.30
2022-09-23T13:34:41.496Z,1.20
2022-09-23T13:37:47.695Z,1.40
2022-09-23T13:40:50.873Z,1.40
2022-09-23T13:43:58.504Z,1.45
2022-09-23T13:47:03.782Z,1.17
2022-09-23T13:50:17.501Z,1.20
2022-09-23T13:53:25.424Z,1.30
2022-09-23T13:56:30.405Z,1.35
2022-09-23T13:59:39.334Z,1.30
2022-09-23T14:02:43.395Z,1.53
2022-09-23T14:05:49.124Z,1.95
2022-09-23T14:08:51.829Z,3.47
2022-09-23T14:11:57.157Z,5.18
2022-09-23T14:14:59.788Z,2.25
2022-09-23T14:18:07.185Z,18.57
2022-09-23T14:21:30.356Z,8.63
2022-09-23T14:24:35.572Z,23.40
2022-09-23T14:27:39.685Z,35.67
2022-09-23T14:30:44.022Z,10.15
2022-09-23T14:33:46.893Z,3.63
2022-09-23T14:37:09.391Z,2.20
2022-09-23T14:40:17.892Z,1.55
2022-09-23T14:43:25.120Z,2.70
2022-09-23T14:46:29.341Z,1.60
2022-09-23T14:49:35.429Z,1.20
2022-09-23T14:52:48.951Z,1.25
2022-09-23T14:55:57.388Z,1.30
2022-09-23T14:59:01.683Z,1.30
2022-09-23T15:02:28.999Z,1.30
2022-09-23T15:05:40.309Z,2.00
2022-09-23T15:08:46.509Z,3.15
2022-09-23T15:11:49.144Z,4.32
2022-09-23T15:14:54.969Z,3.72
2022-09-23T15:18:05.760Z,2.20
2022-09-23T15:21:11.529Z,1.30
2022-09-23T15:24:39.188Z,1.38
2022-09-23T15:27:42.070Z,1.10
2022-09-23T15:30:45.311Z,1.25
2022-09-23T15:33:48.672Z,1.42
2022-09-23T15:36:51.300Z,1.43
2022-09-23T15:39:55.538Z,1.88
2022-09-23T15:43:00.650Z,2.40
2022-09-23T15:46:09.253Z,2.63
2022-09-23T15:49:23.057Z,2.10
2022-09-23T15:52:26.511Z,1.90
2022-09-23T15:55:31.564Z,1.83
2022-09-23T15:58:34.461Z,1.75
2022-09-23T16:01:38.423Z,1.42
2022-09-23T16:04:42.075Z,1.70
2022-09-23T16:07:45.303Z,1.30
2022-09-23T16:10:49.323Z,1.27
2022-09-23T16:13:52.238Z,1.52
2022-09-23T16:16:54.931Z,1.42
2022-09-23T16:19:57.695Z,1.75
2022-09-23T16:23:03.183Z,1.47
2022-09-23T16:26:09.553Z,1.40
2022-09-23T16:29:12.442Z,1.50
2022-09-23T16:32:18.900Z,1.50
2022-09-23T16:35:26.646Z,1.70
2022-09-23T16:38:29.939Z,1.53
2022-09-23T16:41:34.320Z,1.50
2022-09-23T16:44:37.391Z,1.88
2022-09-23T16:47:44.345Z,1.70
2022-09-23T16:50:47.654Z,1.98
2022-09-23T16:53:51.604Z,1.70
2022-09-23T16:56:55.503Z,1.90
2022-09-23T17:00:16.150Z,1.80
2022-09-23T17:03:36.247Z,1.70
2022-09-23T17:06:44.183Z,1.90
2022-09-23T17:09:46.916Z,1.50
2022-09-23T17:12:52.632Z,1.80
2022-09-23T17:15:55.646Z,1.83
2022-09-23T17:18:58.754Z,1.63
2022-09-23T17:22:01.305Z,1.98
2022-09-23T17:25:04.397Z,2.20
2022-09-23T17:28:08.453Z,1.90
2022-09-23T17:31:11.244Z,1.85
2022-09-23T17:34:13.832Z,2.30
2022-09-23T17:37:16.920Z,2.15
2022-09-23T17:40:19.538Z,1.97
2022-09-23T17:43:25.038Z,2.15
2022-09-23T17:46:29.131Z,2.70
2022-09-23T17:49:35.428Z,2.78
2022-09-23T17:52:38.230Z,3.30
2022-09-23T17:55:40.929Z,3.67
2022-09-23T17:58:45.960Z,4.20
2022-09-23T18:01:48.618Z,3.65
2022-09-23T18:04:51.248Z,3.72
2022-09-23T18:07:53.983Z,3.25
2022-09-23T18:10:56.541Z,2.90
2022-09-23T18:14:02.125Z,3.30
2022-09-23T18:17:04.721Z,4.32
2022-09-23T18:20:09.174Z,4.25
2022-09-23T18:23:12.153Z,3.72
2022-09-23T18:26:16.175Z,4.97
2022-09-23T18:29:20.292Z,5.50
2022-09-23T18:32:22.887Z,5.40
2022-09-23T18:35:25.441Z,5.80
2022-09-23T18:38:28.283Z,6.82
2022-09-23T18:41:31.340Z,6.40
2022-09-23T18:44:35.711Z,6.28
2022-09-23T18:48:10.929Z,5.60
2022-09-23T18:51:29.278Z,6.40
2022-09-23T18:54:32.044Z,7.05
2022-09-23T18:57:34.967Z,8.90
2022-09-23T19:00:39.446Z,7.43
2022-09-23T19:03:42.441Z,6.53
2022-09-23T19:06:45.355Z,6.80
2022-09-23T19:09:48.111Z,5.85
2022-09-23T19:12:50.991Z,5.75
2022-09-23T19:15:55.110Z,5.60
2022-09-23T19:18:57.719Z,5.40
2022-09-23T19:22:01.343Z,5.10
2022-09-23T19:25:04.359Z,5.43
2022-09-23T19:28:08.347Z,6.95
2022-09-23T19:31:13.959Z,7.30
2022-09-23T19:34:18.590Z,6.60
2022-09-23T19:37:21.251Z,6.68
2022-09-23T19:40:23.938Z,6.30
2022-09-23T19:43:28.201Z,6.00
2022-09-23T19:46:33.359Z,5.20
2022-09-23T19:49:36.184Z,4.57
2022-09-23T19:52:39.157Z,3.88
2022-09-23T19:55:42.860Z,3.97
2022-09-23T19:58:47.219Z,4.22
2022-09-23T20:01:51.212Z,4.80
2022-09-23T20:04:54.171Z,4.60
2022-09-23T20:07:58.917Z,5.03
2022-09-23T20:11:11.264Z,5.03
2022-09-23T20:14:13.907Z,5.40
2022-09-23T20:17:19.215Z,5.87
2022-09-23T20:20:21.784Z,6.00
2022-09-23T20:23:24.575Z,5.50
2022-09-23T20:26:44.766Z,5.28
2022-09-23T20:29:48.631Z,5.35
2022-09-23T20:32:52.568Z,5.27
2022-09-23T20:35:57.125Z,5.37
2022-09-23T20:39:01.397Z,5.63
2022-09-23T20:42:04.407Z,6.07
2022-09-23T20:45:08.238Z,6.10
2022-09-23T20:48:12.967Z,5.80
2022-09-23T20:51:15.779Z,5.90
2022-09-23T20:54:19.542Z,6.10
2022-09-23T20:57:22.097Z,6.15
2022-09-23T21:00:24.846Z,6.68
2022-09-23T21:03:29.365Z,6.53
2022-09-23T21:06:32.688Z,6.33
2022-09-23T21:09:35.303Z,6.18
2022-09-23T21:12:38.006Z,6.72
2022-09-23T21:15:41.892Z,6.60
2022-09-23T21:18:46.898Z,6.97
2022-09-23T21:21:49.515Z,6.23
2022-09-23T21:25:26.270Z,6.30
2022-09-23T21:28:15.756Z,6.77
2022-09-23T21:31:23.789Z,5.93
2022-09-23T21:34:30.101Z,5.95
2022-09-23T21:37:32.951Z,6.00
2022-09-23T21:40:53.393Z,6.13
2022-09-23T21:43:57.784Z,6.00
2022-09-23T21:47:00.469Z,5.97
2022-09-23T21:50:05.172Z,5.45
2022-09-23T21:53:08.805Z,5.82
2022-09-23T21:56:18.065Z,4.90
2022-09-23T21:59:23.056Z,5.50
2022-09-23T22:02:25.775Z,5.70
2022-09-23T22:05:29.759Z,5.75
2022-09-23T22:08:37.054Z,5.82
2022-09-23T22:11:58.601Z,5.78
2022-09-23T22:15:01.191Z,5.70
2022-09-23T22:18:05.559Z,5.77
2022-09-23T22:21:09.954Z,5.75
2022-09-23T22:24:13.803Z,5.80
2022-09-23T22:27:18.905Z,6.05
2022-09-23T22:30:38.975Z,6.00
2022-09-23T22:33:41.701Z,6.13
2022-09-23T22:36:45.672Z,5.70
2022-09-23T22:39:48.684Z,5.63
2022-09-23T22:42:51.503Z,5.97
2022-09-23T22:45:54.110Z,6.40
2022-09-23T22:48:56.979Z,6.20
2022-09-23T22:52:01.415Z,6.13
2022-09-23T22:55:04.620Z,6.28
2022-09-23T22:58:30.817Z,6.00
2022-09-23T23:01:30.656Z,6.13
2022-09-23T23:04:33.865Z,5.97
2022-09-23T23:07:37.966Z,5.93
2022-09-23T23:10:41.017Z,5.80
2022-09-23T23:13:44.255Z,5.93
2022-09-23T23:16:47.331Z,6.50
2022-09-23T23:19:50.725Z,5.60
2022-09-23T23:22:55.053Z,6.07
2022-09-23T23:25:57.871Z,6.00
2022-09-23T23:29:01.517Z,5.97
2022-09-23T23:32:05.186Z,5.80
2022-09-23T23:35:08.962Z,5.60
2022-09-23T23:38:13.018Z,5.82
2022-09-23T23:41:17.638Z,6.05
2022-09-23T23:44:20.375Z,5.70
2022-09-23T23:47:23.423Z,5.63
2022-09-23T23:50:26.462Z,4.80
2022-09-23T23:53:33.855Z,5.43
2022-09-23T23:56:36.411Z,5.85
2022-09-23T23:59:39.118Z,6.03
